createdAt,value
2022-08-05T00:02:20.256Z,101390.69
2022-08-05T00:07:59.920Z,101392.66
2022-08-05T00:13:39.608Z,101389.00
2022-08-05T00:19:02.293Z,101384.53
2022-08-05T00:24:30.653Z,101394.88
2022-08-05T00:29:53.162Z,101396.28
2022-08-05T00:35:18.209Z,101427.31
2022-08-05T00:40:53.918Z,101451.66
2022-08-05T00:46:15.716Z,101463.72
2022-08-05T00:51:51.237Z,101480.50
2022-08-05T00:57:13.983Z,101506.50
2022-08-05T01:02:35.708Z,101520.50
2022-08-05T01:08:42.059Z,101506.50
2022-08-05T01:13:59.869Z,101491.41
2022-08-05T01:19:56.532Z,101492.50
2022-08-05T01:25:43.578Z,101475.16
2022-08-05T01:31:15.208Z,101410.28
2022-08-05T01:36:46.969Z,101302.00
2022-08-05T01:42:13.768Z,101447.47
2022-08-05T01:47:39.490Z,101385.66
2022-08-05T01:53:08.591Z,101437.69
2022-08-05T01:58:45.136Z,101462.28
2022-08-05T02:04:10.260Z,101466.75
2022-08-05T02:09:32.546Z,101454.19
2022-08-05T02:15:22.306Z,101418.63
2022-08-05T02:20:58.775Z,101434.84
2022-08-05T02:26:28.396Z,101436.81
2022-08-05T02:31:54.224Z,101433.16
2022-08-05T02:37:19.989Z,101447.44
2022-08-05T02:42:45.546Z,101453.03
2022-08-05T02:48:16.289Z,101469.53
2022-08-05T02:53:40.436Z,101469.81
2022-08-05T02:59:03.728Z,101474.56
2022-08-05T03:04:28.099Z,101481.28
2022-08-05T03:09:52.014Z,101468.66
2022-08-05T03:15:14.496Z,101469.78
2022-08-05T03:20:38.488Z,101459.69
2022-08-05T03:26:32.041Z,101449.38
2022-08-05T03:31:56.520Z,101441.28
2022-08-05T03:37:21.181Z,101438.47
2022-08-05T03:42:51.910Z,101428.41
2022-08-05T03:48:14.649Z,101413.84
2022-08-05T03:55:53.870Z,101427.81
2022-08-05T03:59:54.973Z,101436.47
2022-08-05T04:05:18.779Z,101429.22
2022-08-05T04:10:41.847Z,101432.03
2022-08-05T04:16:04.303Z,101442.34
2022-08-05T04:22:09.351Z,101440.66
2022-08-05T04:27:08.498Z,101437.03
2022-08-05T04:32:31.138Z,101442.34
2022-08-05T04:38:00.988Z,101454.94
2022-08-05T04:43:24.750Z,101452.13
2022-08-05T04:48:47.759Z,101442.06
2022-08-05T04:54:14.917Z,101433.66
2022-08-05T04:59:39.131Z,101444.00
2022-08-05T05:05:03.016Z,101454.34
2022-08-05T05:10:25.078Z,101471.41
2022-08-05T05:15:56.633Z,101475.31
2022-08-05T05:21:22.184Z,101472.53
2022-08-05T05:26:51.945Z,101472.78
2022-08-05T05:32:15.607Z,101482.56
2022-08-05T05:38:00.101Z,101483.13
2022-08-05T05:43:57.548Z,101492.31
2022-08-05T05:49:06.440Z,101495.53
2022-08-05T05:54:50.329Z,101506.00
2022-08-05T06:00:18.272Z,101511.47
2022-08-05T06:05:39.963Z,101505.28
2022-08-05T06:11:04.035Z,101509.47
2022-08-05T06:16:30.124Z,101514.81
2022-08-05T06:21:53.864Z,101529.91
2022-08-05T06:28:09.386Z,101539.47
2022-08-05T06:32:58.034Z,101549.59
2022-08-05T06:38:36.182Z,101551.81
2022-08-05T06:44:00.620Z,101562.47
2022-08-05T06:50:01.853Z,101574.47
2022-08-05T06:55:05.063Z,101576.16
2022-08-05T07:00:26.749Z,101575.59
2022-08-05T07:05:51.527Z,101590.41
2022-08-05T07:11:15.318Z,101605.78
2022-08-05T07:18:00.161Z,101610.84
2022-08-05T07:22:34.121Z,101607.78
2022-08-05T07:28:01.421Z,101612.84
2022-08-05T07:33:36.949Z,101624.63
2022-08-05T07:39:06.752Z,101639.50
2022-08-05T07:44:46.305Z,101642.34
2022-08-05T07:50:09.132Z,101641.28
2022-08-05T07:55:53.607Z,101638.84
2022-08-05T08:01:13.493Z,101642.53
2022-08-05T08:06:37.448Z,101641.69
2022-08-05T08:12:06.218Z,101652.59
2022-08-05T08:17:35.291Z,101657.25
2022-08-05T08:23:03.416Z,101673.75
2022-08-05T08:28:36.696Z,101664.50
2022-08-05T08:33:58.969Z,101667.88
2022-08-05T08:39:21.888Z,101669.59
2022-08-05T08:45:20.312Z,101685.03
2022-08-05T08:51:03.049Z,101692.56
2022-08-05T08:56:08.632Z,101711.00
2022-08-05T09:01:32.000Z,101710.38
2022-08-05T09:06:53.789Z,101718.72
2022-08-05T09:12:20.626Z,101718.72
2022-08-05T09:17:50.745Z,101727.69
2022-08-05T09:23:19.078Z,101730.78
2022-08-05T09:28:41.823Z,101733.09
2022-08-05T09:34:07.812Z,101744.59
2022-08-05T09:39:41.794Z,101750.47
2022-08-05T09:46:04.553Z,101751.34
2022-08-05T09:50:52.108Z,101755.53
2022-08-05T09:56:13.846Z,101758.34
2022-08-05T10:01:40.178Z,101750.81
2022-08-05T10:07:20.815Z,101759.75
2022-08-05T10:12:56.211Z,101761.72
2022-08-05T10:18:27.393Z,101760.63
2022-08-05T10:23:59.445Z,101754.16
2022-08-05T10:30:06.065Z,101758.06
2022-08-05T10:35:04.579Z,101744.94
2022-08-05T10:40:45.083Z,101759.50
2022-08-05T10:46:12.581Z,101767.03
2022-08-05T10:51:57.782Z,101776.88
2022-08-05T10:57:33.704Z,101778.53
2022-08-05T11:03:23.652Z,101785.00
2022-08-05T11:09:16.607Z,101780.50
2022-08-05T11:20:43.851Z,101800.91
2022-08-05T11:26:28.627Z,101807.38
2022-08-05T11:32:24.902Z,101816.28
2022-08-05T11:38:29.336Z,101817.97
2022-08-05T11:44:08.398Z,101842.31
2022-08-05T11:49:33.873Z,101836.13
2022-08-05T11:54:57.633Z,101853.75
2022-08-05T12:00:32.032Z,101864.94
2022-08-05T12:05:54.510Z,101873.88
2022-08-05T12:11:23.853Z,101869.09
2022-08-05T12:16:50.274Z,101883.38
2022-08-05T12:22:12.820Z,101887.25
2022-08-05T12:27:53.348Z,101888.09
2022-08-05T12:33:27.479Z,101892.84
2022-08-05T12:38:58.610Z,101897.34
2022-08-05T12:44:21.606Z,101900.97
2022-08-05T12:50:04.097Z,101914.13
2022-08-05T12:55:32.477Z,101919.72
2022-08-05T13:02:03.463Z,101918.84
2022-08-05T13:06:51.942Z,101928.94
2022-08-05T13:12:16.450Z,101934.81
2022-08-05T13:17:41.988Z,101924.72
2022-08-05T13:23:07.144Z,101925.56
2022-08-05T13:28:29.455Z,101933.09
2022-08-05T13:34:22.241Z,101936.75
2022-08-05T13:40:16.210Z,101935.91
2022-08-05T13:45:21.575Z,101951.81
2022-08-05T13:50:43.327Z,101961.91
2022-08-05T13:56:17.969Z,101965.56
2022-08-05T14:01:46.727Z,101975.06
2022-08-05T14:07:59.964Z,101970.28
2022-08-05T14:13:15.411Z,101980.66
2022-08-05T14:18:37.914Z,101990.16
2022-08-05T14:24:00.735Z,101985.38
2022-08-05T14:29:22.646Z,101983.69
2022-08-05T14:34:45.016Z,101994.88
2022-08-05T14:40:08.447Z,101990.97
2022-08-05T14:45:30.475Z,101997.44
2022-08-05T14:50:52.546Z,101989.28
2022-08-05T14:56:14.645Z,101991.84
2022-08-05T15:01:48.870Z,101999.38
2022-08-05T15:07:11.427Z,102005.22
2022-08-05T15:13:01.189Z,102003.53
2022-08-05T15:18:26.091Z,101997.34
2022-08-05T15:23:48.299Z,101994.56
2022-08-05T15:29:10.051Z,102014.03
2022-08-05T15:34:33.613Z,102012.97
2022-08-05T15:41:00.214Z,102015.78
2022-08-05T15:45:45.634Z,102021.69
2022-08-05T15:51:07.852Z,102032.88
2022-08-05T15:56:30.653Z,102035.41
2022-08-05T16:01:53.720Z,102037.69
2022-08-05T16:07:15.586Z,102055.66
2022-08-05T16:12:37.327Z,102051.59
2022-08-05T16:17:59.320Z,102064.38
2022-08-05T16:23:21.166Z,102068.38
2022-08-05T16:28:44.526Z,102076.75
2022-08-05T16:34:06.213Z,102083.22
2022-08-05T16:40:06.103Z,102086.97
2022-08-05T16:46:03.550Z,102091.28
2022-08-05T16:50:54.960Z,102107.16
2022-08-05T16:56:17.372Z,102115.81
2022-08-05T17:01:54.695Z,102142.06
2022-08-05T17:07:38.925Z,102135.88
2022-08-05T17:12:59.437Z,102138.59
2022-08-05T17:18:23.322Z,102146.63
2022-08-05T17:24:04.370Z,102156.06
2022-08-05T17:29:33.111Z,102161.28
2022-08-05T17:34:55.853Z,102169.09
2022-08-05T17:40:22.560Z,102181.63
2022-08-05T17:45:44.784Z,102178.47
2022-08-05T17:51:09.270Z,102189.66
2022-08-05T17:56:31.546Z,102200.84
2022-08-05T18:01:54.282Z,102207.03
2022-08-05T18:07:16.562Z,102217.34
2022-08-05T18:12:39.270Z,102223.81
2022-08-05T18:18:05.571Z,102231.84
2022-08-05T18:23:40.720Z,102246.91
2022-08-05T18:29:10.393Z,102246.06
2022-08-05T18:34:40.715Z,102251.06
2022-08-05T18:41:50.581Z,102260.03
2022-08-05T18:45:45.411Z,102267.31
2022-08-05T18:52:05.065Z,102268.94
2022-08-05T18:57:09.708Z,102268.47
2022-08-05T19:02:38.409Z,102283.34
2022-08-05T19:08:02.766Z,102280.31
2022-08-05T19:13:29.255Z,102298.53
2022-08-05T19:18:51.229Z,102295.75
2022-08-05T19:24:13.363Z,102299.41
2022-08-05T19:29:36.163Z,102313.59
2022-08-05T19:34:58.302Z,102320.66
2022-08-05T19:40:20.023Z,102314.53
2022-08-05T19:45:54.423Z,102322.44
2022-08-05T19:52:05.489Z,102332.53
2022-08-05T19:57:09.175Z,102343.69
2022-08-05T20:02:33.665Z,102340.28
2022-08-05T20:07:59.066Z,102348.06
2022-08-05T20:13:29.992Z,102359.25
2022-08-05T20:19:03.386Z,102369.56
2022-08-05T20:24:25.125Z,102376.00
2022-08-05T20:29:57.416Z,102380.41
2022-08-05T20:35:20.335Z,102375.28
2022-08-05T20:40:43.269Z,102382.56
2022-08-05T20:46:06.915Z,102388.91
2022-08-05T20:51:28.629Z,102395.22
2022-08-05T20:56:50.337Z,102390.00
2022-08-05T21:02:12.353Z,102390.97
2022-08-05T21:07:50.493Z,102386.81
2022-08-05T21:13:15.885Z,102399.22
2022-08-05T21:18:47.913Z,102395.31
2022-08-05T21:24:12.812Z,102398.13
2022-08-05T21:29:40.608Z,102403.44
2022-08-05T21:35:18.110Z,102414.63
2022-08-05T21:40:45.082Z,102421.06
2022-08-05T21:46:07.320Z,102423.00
2022-08-05T21:52:22.979Z,102432.47
2022-08-05T21:57:30.886Z,102434.66
2022-08-05T22:02:52.693Z,102438.31
2022-08-05T22:08:21.960Z,102445.81
2022-08-05T22:14:31.221Z,102453.38
2022-08-05T22:20:01.522Z,102448.63
2022-08-05T22:26:10.871Z,102457.25
2022-08-05T22:31:09.279Z,102462.00
2022-08-05T22:36:32.941Z,102462.00
2022-08-05T22:42:09.591Z,102471.47
2022-08-05T22:47:34.664Z,102474.28
2022-08-05T22:52:57.285Z,102481.78
2022-08-05T22:58:28.628Z,102477.06
2022-08-05T23:03:58.011Z,102485.44
2022-08-05T23:09:27.467Z,102492.13
2022-08-05T23:15:09.012Z,102489.53
2022-08-05T23:20:32.891Z,102497.94
2022-08-05T23:25:55.448Z,102495.13
2022-08-05T23:31:18.031Z,102506.56
2022-08-05T23:36:44.389Z,102503.75
2022-08-05T23:42:08.631Z,102508.50
2022-08-05T23:47:36.516Z,102504.25
2022-08-05T23:53:22.712Z,102520.53
2022-08-05T23:58:44.907Z,102519.19
